createdAt,value
2023-02-15T00:00:11.019Z,41.20
2023-02-15T00:02:39.780Z,43.80
2023-02-15T00:05:08.075Z,44.20
2023-02-15T00:07:35.518Z,40.72
2023-02-15T00:10:05.593Z,41.47
2023-02-15T00:12:33.139Z,43.88
2023-02-15T00:15:00.503Z,46.00
2023-02-15T00:17:29.679Z,40.33
2023-02-15T00:19:57.393Z,41.25
2023-02-15T00:22:25.618Z,33.15
2023-02-15T00:24:52.929Z,43.25
2023-02-15T00:27:20.204Z,34.95
2023-02-15T00:29:48.265Z,49.42
2023-02-15T00:32:15.576Z,36.95
2023-02-15T00:34:43.744Z,34.72
2023-02-15T00:37:10.940Z,36.45
2023-02-15T00:39:38.421Z,38.25
2023-02-15T00:42:07.575Z,40.83
2023-02-15T00:44:35.219Z,41.35
2023-02-15T00:47:02.436Z,36.75
2023-02-15T00:49:29.629Z,37.88
2023-02-15T00:51:56.831Z,39.95
2023-02-15T00:54:24.079Z,38.28
2023-02-15T00:56:51.428Z,36.97
2023-02-15T00:59:18.719Z,42.35
2023-02-15T01:01:46.087Z,37.83
2023-02-15T01:04:13.478Z,41.17
2023-02-15T01:06:40.599Z,42.17
2023-02-15T01:09:07.728Z,38.22
2023-02-15T01:11:34.978Z,40.75
2023-02-15T01:14:03.523Z,45.28
2023-02-15T01:16:30.772Z,41.55
2023-02-15T01:18:59.644Z,44.97
2023-02-15T01:21:27.050Z,35.42
2023-02-15T01:23:54.675Z,40.55
2023-02-15T01:26:21.867Z,39.63
2023-02-15T01:28:49.034Z,44.30
2023-02-15T01:31:20.108Z,39.35
2023-02-15T01:33:48.662Z,36.90
2023-02-15T01:36:17.667Z,37.05
2023-02-15T01:38:45.368Z,42.47
2023-02-15T01:41:23.394Z,37.67
2023-02-15T01:44:00.659Z,38.72
2023-02-15T01:46:41.283Z,33.85
2023-02-15T01:49:17.056Z,37.65
2023-02-15T01:51:47.976Z,37.08
2023-02-15T01:54:34.340Z,38.47
2023-02-15T01:57:09.595Z,35.08
2023-02-15T01:59:40.212Z,33.78
2023-02-15T02:02:10.100Z,35.50
2023-02-15T02:04:50.501Z,34.13
2023-02-15T02:07:27.552Z,37.75
2023-02-15T02:09:55.205Z,33.75
2023-02-15T02:14:53.336Z,37.30
2023-02-15T02:17:57.165Z,34.05
2023-02-15T02:21:13.363Z,38.92
2023-02-15T02:24:31.111Z,36.10
2023-02-15T02:27:26.600Z,40.70
2023-02-15T02:30:36.453Z,39.17
2023-02-15T02:33:18.735Z,39.75
2023-02-15T02:35:57.072Z,34.80
2023-02-15T02:38:55.383Z,41.15
2023-02-15T02:42:04.928Z,43.38
2023-02-15T02:44:43.946Z,42.38
2023-02-15T02:47:19.958Z,44.40
2023-02-15T02:49:47.115Z,41.38
2023-02-15T02:52:37.820Z,43.75
2023-02-15T02:55:18.518Z,40.10
2023-02-15T02:58:18.301Z,38.05
2023-02-15T03:03:27.647Z,41.53
2023-02-15T03:05:59.787Z,37.83
2023-02-15T03:08:37.374Z,38.58
2023-02-15T03:11:05.227Z,40.85
2023-02-15T03:13:33.458Z,35.67
2023-02-15T03:16:20.653Z,41.78
2023-02-15T03:18:58.140Z,37.20
2023-02-15T03:22:04.157Z,38.05
2023-02-15T03:24:35.777Z,41.40
2023-02-15T03:27:17.871Z,37.70
2023-02-15T03:29:49.283Z,46.25
2023-02-15T03:32:17.559Z,42.25
2023-02-15T03:34:45.265Z,41.72
2023-02-15T03:37:25.025Z,40.97
2023-02-15T03:40:42.072Z,45.95
2023-02-15T03:43:41.834Z,45.63
2023-02-15T03:46:28.331Z,47.72
2023-02-15T03:49:17.922Z,49.45
2023-02-15T03:51:48.784Z,37.05
2023-02-15T03:54:40.709Z,37.63
2023-02-15T03:57:35.164Z,43.38
2023-02-15T04:00:35.718Z,45.17
2023-02-15T04:03:05.571Z,43.65
2023-02-15T04:05:32.832Z,42.40
2023-02-15T04:08:00.124Z,43.35
2023-02-15T04:10:45.980Z,37.25
2023-02-15T04:13:13.206Z,46.80
2023-02-15T04:16:12.870Z,42.80
2023-02-15T04:19:02.224Z,46.33
2023-02-15T04:21:49.254Z,40.40
2023-02-15T04:24:36.166Z,46.50
2023-02-15T04:27:05.041Z,45.13
2023-02-15T04:29:32.846Z,42.80
2023-02-15T04:32:02.172Z,58.45
2023-02-15T04:34:29.448Z,60.05
2023-02-15T04:36:56.839Z,55.75
2023-02-15T04:39:24.108Z,51.95
2023-02-15T04:41:51.373Z,46.47
2023-02-15T04:44:18.529Z,47.65
2023-02-15T04:46:45.637Z,44.55
2023-02-15T04:49:12.844Z,50.38
2023-02-15T04:51:40.155Z,45.58
2023-02-15T04:54:07.377Z,51.53
2023-02-15T04:56:35.366Z,63.85
2023-02-15T04:59:02.470Z,46.72
2023-02-15T05:01:29.747Z,62.80
2023-02-15T05:03:57.227Z,57.90
2023-02-15T05:06:24.472Z,60.50
2023-02-15T05:08:51.752Z,68.30
2023-02-15T05:11:18.983Z,70.97
2023-02-15T05:13:46.318Z,81.10
2023-02-15T05:16:13.591Z,65.95
2023-02-15T05:18:40.812Z,65.05
2023-02-15T05:21:08.175Z,70.60
2023-02-15T05:23:35.826Z,78.90
2023-02-15T05:26:21.952Z,78.45
2023-02-15T05:28:49.310Z,81.95
2023-02-15T05:31:19.979Z,77.93
2023-02-15T05:33:47.827Z,84.00
2023-02-15T05:36:14.978Z,90.88
2023-02-15T05:38:42.221Z,88.18
2023-02-15T05:41:11.553Z,81.07
2023-02-15T05:43:39.481Z,90.38
2023-02-15T05:46:07.919Z,72.05
2023-02-15T05:48:35.616Z,60.55
2023-02-15T05:51:13.390Z,60.80
2023-02-15T05:53:41.279Z,59.63
2023-02-15T05:56:11.062Z,56.33
2023-02-15T05:58:41.213Z,48.17
2023-02-15T06:01:11.060Z,50.95
2023-02-15T06:03:38.778Z,50.60
2023-02-15T06:06:07.108Z,59.25
2023-02-15T06:08:36.806Z,53.50
2023-02-15T06:11:05.478Z,58.58
2023-02-15T06:13:35.933Z,57.43
2023-02-15T06:16:04.847Z,60.08
2023-02-15T06:18:32.338Z,57.72
2023-02-15T06:20:59.511Z,58.03
2023-02-15T06:23:26.661Z,53.25
2023-02-15T06:25:54.428Z,44.05
2023-02-15T06:28:21.696Z,50.70
2023-02-15T06:30:48.960Z,55.22
2023-02-15T06:33:16.326Z,62.40
2023-02-15T06:35:43.696Z,53.83
2023-02-15T06:38:11.012Z,62.45
2023-02-15T06:40:38.328Z,63.30
2023-02-15T06:43:05.458Z,70.60
2023-02-15T06:45:32.642Z,67.32
2023-02-15T06:47:59.906Z,66.10
2023-02-15T06:50:27.157Z,66.72
2023-02-15T06:52:59.268Z,79.55
2023-02-15T06:55:27.011Z,67.97
2023-02-15T06:57:54.291Z,69.38
2023-02-15T07:00:23.467Z,64.35
2023-02-15T07:02:58.951Z,80.10
2023-02-15T07:05:31.195Z,73.28
2023-02-15T07:07:59.751Z,70.13
2023-02-15T07:10:28.218Z,57.00
2023-02-15T07:12:55.948Z,52.55
2023-02-15T07:15:23.470Z,58.85
2023-02-15T07:17:51.165Z,75.68
2023-02-15T07:20:22.020Z,67.90
2023-02-15T07:22:50.802Z,110.03
2023-02-15T07:25:18.826Z,84.07
2023-02-15T07:27:46.231Z,59.90
2023-02-15T07:30:16.929Z,62.60
2023-02-15T07:33:05.490Z,54.25
2023-02-15T07:35:34.306Z,69.60
2023-02-15T07:38:02.053Z,82.32
2023-02-15T07:40:29.274Z,71.88
2023-02-15T07:42:59.335Z,91.43
2023-02-15T07:45:27.291Z,66.82
2023-02-15T07:47:54.687Z,50.35
2023-02-15T07:50:21.883Z,64.75
2023-02-15T07:52:49.180Z,67.40
2023-02-15T07:55:16.522Z,65.95
2023-02-15T07:57:45.530Z,62.42
2023-02-15T08:00:16.033Z,54.97
2023-02-15T08:02:49.273Z,61.88
2023-02-15T08:05:18.640Z,55.60
2023-02-15T08:07:45.773Z,61.17
2023-02-15T08:10:33.193Z,60.17
2023-02-15T08:13:00.464Z,51.20
2023-02-15T08:15:27.692Z,54.78
2023-02-15T08:17:55.073Z,58.22
2023-02-15T08:20:22.286Z,52.50
2023-02-15T08:22:49.633Z,49.28
2023-02-15T08:25:16.998Z,38.92
2023-02-15T08:27:44.266Z,32.90
2023-02-15T08:30:14.496Z,34.70
2023-02-15T08:32:41.806Z,37.58
2023-02-15T08:35:09.253Z,45.92
2023-02-15T08:37:36.608Z,32.08
2023-02-15T08:40:05.631Z,35.95
2023-02-15T08:42:34.433Z,36.00
2023-02-15T08:45:01.664Z,53.40
2023-02-15T08:47:28.969Z,43.20
2023-02-15T08:49:56.375Z,40.17
2023-02-15T08:52:23.644Z,32.65
2023-02-15T08:54:50.795Z,24.08
2023-02-15T08:57:17.932Z,21.88
2023-02-15T08:59:45.122Z,22.65
2023-02-15T09:02:12.487Z,29.60
2023-02-15T09:04:39.677Z,34.45
2023-02-15T09:07:07.196Z,32.65
2023-02-15T09:09:34.344Z,33.95
2023-02-15T09:12:01.572Z,32.75
2023-02-15T09:14:28.895Z,26.05
2023-02-15T09:16:56.220Z,33.60
2023-02-15T09:19:24.737Z,29.98
2023-02-15T09:21:52.415Z,39.97
2023-02-15T09:24:19.814Z,30.95
2023-02-15T09:26:48.844Z,26.42
2023-02-15T09:29:17.838Z,25.92
2023-02-15T09:31:49.107Z,33.40
2023-02-15T09:34:20.258Z,45.35
2023-02-15T09:36:48.326Z,28.00
2023-02-15T09:39:21.432Z,30.98
2023-02-15T09:42:00.637Z,28.85
2023-02-15T09:44:33.815Z,30.55
2023-02-15T09:47:25.389Z,38.25
2023-02-15T09:50:38.079Z,43.83
2023-02-15T09:53:51.953Z,60.67
2023-02-15T09:56:37.823Z,39.63
2023-02-15T09:59:31.571Z,37.42
2023-02-15T10:02:31.006Z,38.33
2023-02-15T10:08:41.244Z,33.80
2023-02-15T10:11:40.758Z,27.98
2023-02-15T10:17:36.378Z,28.85
2023-02-15T10:20:22.435Z,29.75
2023-02-15T10:23:04.524Z,35.40
2023-02-15T10:25:47.773Z,25.42
2023-02-15T10:28:48.490Z,23.25
2023-02-15T10:31:43.485Z,34.50
2023-02-15T10:34:37.768Z,28.55
2023-02-15T10:37:31.779Z,36.95
2023-02-15T10:40:20.026Z,26.63
2023-02-15T10:43:13.637Z,27.95
2023-02-15T10:46:04.805Z,32.25
2023-02-15T10:49:12.994Z,30.58
2023-02-15T10:52:11.025Z,42.15
2023-02-15T10:54:58.898Z,26.25
2023-02-15T10:58:05.616Z,22.27
2023-02-15T11:00:44.642Z,32.55
2023-02-15T11:03:42.852Z,30.67
2023-02-15T11:06:14.304Z,27.60
2023-02-15T11:09:10.375Z,30.42
2023-02-15T11:11:44.281Z,25.52
2023-02-15T11:14:44.352Z,25.83
2023-02-15T11:17:18.000Z,37.33
2023-02-15T11:20:01.013Z,21.23
2023-02-15T11:22:31.131Z,30.60
2023-02-15T11:25:00.960Z,28.40
2023-02-15T11:27:35.780Z,37.38
2023-02-15T11:30:20.368Z,31.85
2023-02-15T11:32:52.673Z,24.40
2023-02-15T11:35:49.637Z,35.30
2023-02-15T11:38:24.773Z,25.02
2023-02-15T11:41:09.886Z,21.98
2023-02-15T11:43:51.897Z,18.67
2023-02-15T11:46:21.910Z,34.47
2023-02-15T11:48:49.471Z,29.27
2023-02-15T11:51:23.664Z,22.15
2023-02-15T11:53:52.242Z,32.63
2023-02-15T11:56:25.228Z,31.60
2023-02-15T11:59:13.235Z,23.65
2023-02-15T12:01:45.363Z,18.13
2023-02-15T12:04:39.945Z,40.97
2023-02-15T12:07:45.724Z,26.88
2023-02-15T12:10:34.966Z,17.48
2023-02-15T12:13:18.833Z,21.48
2023-02-15T12:15:52.752Z,34.22
2023-02-15T12:18:41.691Z,18.48
2023-02-15T12:21:16.010Z,25.70
2023-02-15T12:23:53.207Z,25.35
2023-02-15T12:26:34.536Z,32.47
2023-02-15T12:29:16.786Z,21.90
2023-02-15T12:31:52.057Z,22.10
2023-02-15T12:34:19.369Z,36.17
2023-02-15T12:36:54.699Z,25.80
2023-02-15T12:39:32.645Z,19.60
2023-02-15T12:42:14.334Z,19.90
2023-02-15T12:45:19.643Z,25.05
2023-02-15T12:47:46.904Z,19.20
2023-02-15T12:50:23.339Z,31.10
2023-02-15T12:52:52.097Z,18.75
2023-02-15T12:55:27.663Z,17.80
2023-02-15T12:58:17.802Z,21.75
2023-02-15T13:00:46.139Z,28.75
2023-02-15T13:03:24.307Z,24.60
2023-02-15T13:05:55.180Z,24.60
2023-02-15T13:08:36.821Z,26.80
2023-02-15T13:11:12.079Z,33.40
2023-02-15T13:13:58.280Z,21.08
2023-02-15T13:16:39.550Z,32.00
2023-02-15T13:19:28.890Z,22.27
2023-02-15T13:21:58.406Z,15.98
2023-02-15T13:24:39.672Z,15.32
2023-02-15T13:27:16.822Z,27.27
2023-02-15T13:29:50.007Z,26.73
2023-02-15T13:32:36.653Z,21.65
2023-02-15T13:35:09.840Z,28.02
2023-02-15T13:38:14.004Z,29.60
2023-02-15T13:41:16.308Z,23.70
2023-02-15T13:44:07.700Z,26.77
2023-02-15T13:46:50.562Z,29.52
2023-02-15T13:49:41.279Z,24.48
2023-02-15T13:52:30.254Z,23.30
2023-02-15T13:55:21.405Z,16.15
2023-02-15T13:58:21.048Z,13.75
2023-02-15T14:01:19.883Z,17.73
2023-02-15T14:04:02.640Z,14.43
2023-02-15T14:07:09.670Z,20.13
2023-02-15T14:09:58.534Z,20.48
2023-02-15T14:12:45.588Z,18.15
2023-02-15T14:15:15.655Z,18.20
2023-02-15T14:18:16.844Z,25.30
2023-02-15T14:21:37.964Z,24.50
2023-02-15T14:24:35.553Z,18.80
2023-02-15T14:27:39.009Z,22.75
2023-02-15T14:30:20.714Z,25.10
2023-02-15T14:33:08.341Z,28.58
2023-02-15T14:35:37.626Z,28.50
2023-02-15T14:38:36.602Z,41.22
2023-02-15T14:41:35.894Z,35.53
2023-02-15T14:44:27.212Z,27.17
2023-02-15T14:47:10.621Z,20.98
2023-02-15T14:49:40.410Z,46.95
2023-02-15T14:52:11.859Z,23.13
2023-02-15T14:54:38.861Z,28.20
2023-02-15T14:57:06.712Z,21.52
2023-02-15T15:00:00.617Z,21.77
2023-02-15T15:02:52.151Z,20.33
2023-02-15T15:05:21.405Z,23.08
2023-02-15T15:07:50.694Z,22.33
2023-02-15T15:10:17.948Z,33.13
2023-02-15T15:12:59.068Z,27.88
2023-02-15T15:15:31.862Z,28.50
2023-02-15T15:18:30.190Z,33.97
2023-02-15T15:20:57.498Z,33.55
2023-02-15T15:23:42.653Z,49.72
2023-02-15T15:26:28.988Z,41.17
2023-02-15T15:29:00.227Z,36.83
2023-02-15T15:31:54.574Z,32.60
2023-02-15T15:34:43.353Z,35.28
2023-02-15T15:37:23.042Z,198.82
2023-02-15T15:40:35.026Z,49.63
2023-02-15T15:43:34.181Z,25.70
2023-02-15T15:46:16.962Z,38.53
2023-02-15T15:48:44.344Z,40.85
2023-02-15T15:51:29.353Z,29.92
2023-02-15T15:53:57.294Z,31.65
2023-02-15T15:56:31.831Z,33.80
2023-02-15T15:59:05.654Z,46.83
2023-02-15T16:01:42.749Z,41.08
2023-02-15T16:04:34.160Z,44.38
2023-02-15T16:07:19.920Z,29.55
2023-02-15T16:10:02.329Z,48.70
2023-02-15T16:12:33.659Z,44.08
2023-02-15T16:15:17.236Z,49.47
2023-02-15T16:17:48.863Z,60.03
2023-02-15T16:20:19.025Z,61.13
2023-02-15T16:23:10.882Z,66.07
2023-02-15T16:25:48.750Z,67.90
2023-02-15T16:28:18.956Z,73.70
2023-02-15T16:30:46.416Z,67.93
2023-02-15T16:33:16.421Z,70.03
2023-02-15T16:35:59.454Z,59.08
2023-02-15T16:39:19.671Z,59.92
2023-02-15T16:41:49.408Z,53.28
2023-02-15T16:44:21.125Z,61.13
2023-02-15T16:46:52.529Z,59.47
2023-02-15T16:49:29.161Z,58.42
2023-02-15T16:52:05.793Z,80.28
2023-02-15T16:54:33.998Z,69.28
2023-02-15T16:57:04.270Z,55.45
2023-02-15T16:59:45.678Z,52.85
2023-02-15T17:02:49.293Z,61.80
2023-02-15T17:07:55.515Z,66.40
2023-02-15T17:10:46.035Z,70.70
2023-02-15T17:13:18.215Z,81.30
2023-02-15T17:16:01.013Z,78.03
2023-02-15T17:18:38.821Z,57.03
2023-02-15T17:21:18.818Z,43.70
2023-02-15T17:23:52.229Z,42.47
2023-02-15T17:26:30.855Z,59.58
2023-02-15T17:29:20.898Z,70.00
2023-02-15T17:31:51.915Z,61.10
2023-02-15T17:34:49.118Z,53.10
2023-02-15T17:37:34.411Z,60.65
2023-02-15T17:40:20.891Z,63.65
2023-02-15T17:42:48.210Z,62.80
2023-02-15T17:45:16.429Z,61.72
2023-02-15T17:47:44.336Z,51.78
2023-02-15T17:50:25.647Z,59.88
2023-02-15T17:52:55.631Z,74.63
2023-02-15T17:55:40.569Z,81.03
2023-02-15T17:58:11.689Z,99.35
2023-02-15T18:01:27.644Z,112.75
2023-02-15T18:04:13.797Z,82.82
2023-02-15T18:07:01.903Z,78.40
2023-02-15T18:09:47.908Z,84.53
2023-02-15T18:13:18.724Z,91.55
2023-02-15T18:15:45.946Z,87.03
2023-02-15T18:18:14.034Z,101.85
2023-02-15T18:20:43.022Z,150.05
2023-02-15T18:23:14.496Z,128.65
2023-02-15T18:26:16.334Z,109.47
2023-02-15T18:28:43.513Z,90.07
2023-02-15T18:31:12.165Z,68.65
2023-02-15T18:33:47.696Z,78.38
2023-02-15T18:36:25.489Z,94.32
2023-02-15T18:38:53.614Z,108.43
2023-02-15T18:41:22.310Z,95.85
2023-02-15T18:43:50.869Z,84.15
2023-02-15T18:46:19.136Z,72.57
2023-02-15T18:48:46.405Z,80.40
2023-02-15T18:51:19.675Z,89.03
2023-02-15T18:54:02.282Z,111.45
2023-02-15T18:57:02.447Z,117.45
2023-02-15T18:59:30.816Z,93.82
2023-02-15T19:02:03.080Z,102.65
2023-02-15T19:05:03.210Z,109.13
2023-02-15T19:07:31.961Z,107.15
2023-02-15T19:10:04.066Z,102.00
2023-02-15T19:12:32.411Z,90.10
2023-02-15T19:15:01.582Z,95.93
2023-02-15T19:17:29.719Z,86.38
2023-02-15T19:20:38.196Z,83.78
2023-02-15T19:23:49.533Z,67.55
2023-02-15T19:26:16.727Z,91.47
2023-02-15T19:29:48.666Z,71.60
2023-02-15T19:32:48.797Z,78.78
2023-02-15T19:35:21.774Z,75.47
2023-02-15T19:38:31.920Z,82.45
2023-02-15T19:41:15.496Z,106.50
2023-02-15T19:43:43.618Z,102.65
2023-02-15T19:46:19.369Z,105.88
2023-02-15T19:48:50.801Z,101.78
2023-02-15T19:51:19.718Z,112.47
2023-02-15T19:53:48.743Z,111.87
2023-02-15T19:56:23.761Z,138.70
2023-02-15T19:58:58.127Z,142.80
2023-02-15T20:01:25.611Z,147.05
2023-02-15T20:03:54.236Z,151.23
2023-02-15T20:06:21.764Z,152.57
2023-02-15T20:08:51.887Z,151.32
2023-02-15T20:11:22.949Z,127.13
2023-02-15T20:13:51.639Z,119.57
2023-02-15T20:16:19.593Z,115.32
2023-02-15T20:18:47.036Z,106.43
2023-02-15T20:21:16.062Z,106.85
2023-02-15T20:23:43.560Z,98.80
2023-02-15T20:26:17.690Z,117.70
2023-02-15T20:28:46.337Z,111.10
2023-02-15T20:31:16.592Z,101.60
2023-02-15T20:33:44.215Z,100.40
2023-02-15T20:36:17.670Z,97.72
2023-02-15T20:38:46.024Z,97.68
2023-02-15T20:41:35.653Z,105.68
2023-02-15T20:44:28.678Z,107.60
2023-02-15T20:46:58.713Z,101.95
2023-02-15T20:49:27.341Z,110.05
2023-02-15T20:51:56.388Z,99.28
2023-02-15T20:54:28.216Z,95.70
2023-02-15T20:56:58.219Z,101.18
2023-02-15T20:59:30.124Z,92.53
2023-02-15T21:02:15.197Z,95.93
2023-02-15T21:04:42.408Z,82.32
2023-02-15T21:07:21.118Z,86.38
2023-02-15T21:09:48.521Z,79.30
2023-02-15T21:12:18.834Z,79.85
2023-02-15T21:14:46.314Z,83.57
2023-02-15T21:17:16.183Z,87.80
2023-02-15T21:19:43.842Z,82.10
2023-02-15T21:22:15.086Z,102.80
2023-02-15T21:24:51.029Z,111.70
2023-02-15T21:27:18.602Z,100.53
2023-02-15T21:29:45.759Z,98.95
2023-02-15T21:32:13.050Z,104.15
2023-02-15T21:34:40.382Z,104.65
2023-02-15T21:37:31.052Z,106.45
2023-02-15T21:39:58.349Z,109.30
2023-02-15T21:42:47.032Z,103.10
2023-02-15T21:45:35.245Z,89.73
2023-02-15T21:48:02.959Z,96.75
2023-02-15T21:50:49.039Z,92.50
2023-02-15T21:53:24.639Z,99.97
2023-02-15T21:55:57.339Z,92.43
2023-02-15T21:58:28.112Z,99.05
2023-02-15T22:00:57.440Z,89.95
2023-02-15T22:03:36.545Z,103.63
2023-02-15T22:06:04.820Z,98.00
2023-02-15T22:08:32.862Z,87.90
2023-02-15T22:11:00.089Z,100.85
2023-02-15T22:13:33.400Z,103.25
2023-02-15T22:16:01.434Z,103.63
2023-02-15T22:18:33.785Z,96.65
2023-02-15T22:21:03.982Z,84.13
2023-02-15T22:23:31.600Z,86.13
2023-02-15T22:26:04.881Z,89.28
2023-02-15T22:28:42.708Z,78.38
2023-02-15T22:31:18.065Z,82.90
2023-02-15T22:33:45.529Z,83.90
2023-02-15T22:36:30.076Z,73.38
2023-02-15T22:38:57.879Z,85.68
2023-02-15T22:41:30.912Z,74.85
2023-02-15T22:43:58.447Z,94.07
2023-02-15T22:46:26.555Z,98.85
2023-02-15T22:48:53.918Z,91.95
2023-02-15T22:51:24.131Z,93.03
2023-02-15T22:53:52.763Z,78.10
2023-02-15T22:56:35.133Z,79.22
2023-02-15T22:59:08.225Z,69.20
2023-02-15T23:01:37.590Z,73.65
2023-02-15T23:04:05.168Z,73.65
2023-02-15T23:06:33.770Z,73.38
2023-02-15T23:09:00.947Z,80.28
2023-02-15T23:11:28.505Z,76.03
2023-02-15T23:13:55.776Z,76.22
2023-02-15T23:16:23.107Z,75.93
2023-02-15T23:18:50.517Z,77.45
2023-02-15T23:21:27.399Z,81.05
2023-02-15T23:24:00.704Z,71.88
2023-02-15T23:26:31.084Z,71.32
2023-02-15T23:29:01.008Z,76.38
2023-02-15T23:31:34.609Z,69.55
2023-02-15T23:34:20.442Z,76.45
2023-02-15T23:36:48.293Z,75.60
2023-02-15T23:39:44.264Z,71.07
2023-02-15T23:42:17.916Z,80.25
2023-02-15T23:44:46.666Z,77.80
2023-02-15T23:47:52.453Z,79.00
2023-02-15T23:50:29.323Z,74.90
2023-02-15T23:52:57.670Z,61.65
2023-02-15T23:55:44.369Z,65.70
2023-02-15T23:58:18.573Z,61.72
